Time;durP1;ratioP1;P1;durP2;ratioP2;P2;SDS_P1;SDS_P2;PMS_P1;PMS_P2;Temp;Humidity;BMP_temperature;BMP_pressure;BME280_temperature;BME280_humidity;BME280_pressure;Samples;Min_cycle;Max_cycle;Signal;HPM_P1;HPM_P2
2022/08/16 00:00:08;;;;;;;15.73;14.18;;;22.10;99.90;;;;;;5034745;28;20052;-79
2022/08/16 00:02:34;;;;;;;16.25;14.55;;;22.10;99.90;;;;;;5003186;28;20118;-79
2022/08/16 00:05:00;;;;;;;20.42;15.82;;;22.10;99.90;;;;;;5034629;28;20132;-79
2022/08/16 00:07:28;;;;;;;16.02;14.43;;;22.10;99.90;;;;;;5018254;28;20037;-78
2022/08/16 00:09:53;;;;;;;16.35;14.10;;;22.00;99.90;;;;;;5034089;28;20099;-78
2022/08/16 00:12:19;;;;;;;15.18;13.77;;;22.00;99.90;;;;;;5001398;28;20041;-78
2022/08/16 00:14:45;;;;;;;14.63;13.13;;;22.00;99.90;;;;;;5018397;28;20059;-78
2022/08/16 00:17:11;;;;;;;14.88;13.23;;;22.00;99.90;;;;;;5034743;28;20481;-78
2022/08/16 00:19:36;;;;;;;14.73;13.23;;;21.90;99.90;;;;;;5034637;28;20037;-78
2022/08/16 00:22:02;;;;;;;15.38;13.73;;;21.90;99.90;;;;;;5018188;28;20113;-78
2022/08/16 00:24:28;;;;;;;16.30;14.60;;;21.90;99.90;;;;;;5018248;28;20069;-78
2022/08/16 00:26:54;;;;;;;16.98;14.07;;;21.90;99.90;;;;;;5034060;28;20037;-78
2022/08/16 00:29:20;;;;;;;15.95;14.32;;;21.90;99.90;;;;;;5018250;28;20040;-78
2022/08/16 00:31:49;;;;;;;17.10;15.30;;;21.90;99.90;;;;;;5018571;28;20049;-78
2022/08/16 00:34:16;;;;;;;15.40;13.98;;;21.90;99.90;;;;;;5035094;28;20034;-78
2022/08/16 00:36:45;;;;;;;15.98;14.48;;;21.90;99.90;;;;;;5017883;28;20048;-78
2022/08/16 00:39:12;;;;;;;16.10;13.98;;;21.80;99.90;;;;;;5034360;28;20191;-78
2022/08/16 00:41:38;;;;;;;16.85;15.00;;;21.90;99.90;;;;;;5018169;28;20053;-78
2022/08/16 00:44:09;;;;;;;15.98;14.07;;;21.80;99.90;;;;;;5034470;28;20045;-78
2022/08/16 00:46:53;;;;;;;16.15;14.45;;;21.80;99.90;;;;;;5050759;28;20140;-78
2022/08/16 00:49:19;;;;;;;16.40;14.75;;;21.80;99.90;;;;;;5017475;28;20042;-78
2022/08/16 00:51:45;;;;;;;16.13;14.23;;;21.80;99.90;;;;;;5017636;28;20132;-78
2022/08/16 00:54:12;;;;;;;16.77;15.07;;;21.80;99.90;;;;;;5033784;28;20037;-78
2022/08/16 00:56:41;;;;;;;16.08;14.48;;;21.80;99.90;;;;;;5033440;28;20072;-77
2022/08/16 00:59:09;;;;;;;16.45;14.63;;;21.70;99.90;;;;;;5033226;28;20048;-77
2022/08/16 01:01:35;;;;;;;17.48;15.68;;;21.70;99.90;;;;;;5050403;28;20124;-78
2022/08/16 01:04:02;;;;;;;17.05;15.13;;;21.70;99.90;;;;;;5016950;28;20120;-77
2022/08/16 01:06:29;;;;;;;17.55;15.52;;;21.70;99.90;;;;;;5017137;28;20128;-78
2022/08/16 01:08:56;;;;;;;17.80;15.85;;;21.70;99.90;;;;;;5033196;28;20053;-77
2022/08/16 01:11:24;;;;;;;16.98;15.27;;;21.70;99.90;;;;;;5016580;28;20037;-77
2022/08/16 01:13:53;;;;;;;16.65;14.57;;;21.60;99.90;;;;;;5033023;28;20042;-77
2022/08/16 01:16:23;;;;;;;17.08;15.00;;;21.60;99.90;;;;;;5033435;28;20402;-78
2022/08/16 01:19:03;;;;;;;16.23;14.52;;;21.60;99.90;;;;;;5033321;28;20099;-78
2022/08/16 01:21:43;;;;;;;15.20;13.77;;;21.60;99.90;;;;;;5033345;28;20063;-78
2022/08/16 01:24:36;;;;;;;16.92;13.85;;;21.60;99.90;;;;;;5033710;28;20044;-78
2022/08/16 01:27:14;;;;;;;16.58;14.90;;;21.50;99.90;;;;;;5033246;28;20045;-78
2022/08/16 01:30:15;;;;;;;16.48;14.65;;;21.50;99.90;;;;;;5033142;28;20063;-78
2022/08/16 01:32:41;;;;;;;16.30;14.60;;;21.50;99.90;;;;;;5033504;28;20042;-78
2022/08/16 01:35:19;;;;;;;16.02;14.35;;;21.50;99.90;;;;;;5033972;28;20374;-78
2022/08/16 01:37:50;;;;;;;15.43;13.82;;;21.40;99.90;;;;;;5033656;28;20516;-78
2022/08/16 01:40:19;;;;;;;15.32;13.82;;;21.40;99.90;;;;;;5050365;28;20081;-78
2022/08/16 01:42:47;;;;;;;16.58;14.30;;;21.40;99.90;;;;;;5033905;28;20051;-78
2022/08/16 01:45:13;;;;;;;16.98;14.45;;;21.30;99.90;;;;;;5033935;28;20038;-78
2022/08/16 01:47:40;;;;;;;17.08;15.27;;;21.30;99.90;;;;;;5016683;28;20132;-78
2022/08/16 01:50:07;;;;;;;16.17;14.57;;;21.30;99.90;;;;;;5032652;28;20053;-78
2022/08/16 01:52:34;;;;;;;19.42;15.00;;;21.30;99.90;;;;;;5016906;28;20038;-78
2022/08/16 01:55:00;;;;;;;16.42;14.35;;;21.30;99.90;;;;;;5016755;28;20091;-78
2022/08/16 01:57:27;;;;;;;16.25;14.68;;;21.30;99.90;;;;;;5017473;28;20091;-78
2022/08/16 01:59:54;;;;;;;16.13;14.52;;;21.30;99.90;;;;;;5033804;28;20045;-78
2022/08/16 02:02:23;;;;;;;16.77;14.35;;;21.30;99.90;;;;;;5035248;28;20045;-78
2022/08/16 02:04:48;;;;;;;14.98;13.27;;;21.20;99.90;;;;;;5035146;28;20041;-78
2022/08/16 02:07:17;;;;;;;14.90;13.40;;;21.20;99.90;;;;;;5019057;28;20501;-78
2022/08/16 02:09:44;;;;;;;15.20;13.60;;;21.20;99.90;;;;;;5016528;28;20037;-78
2022/08/16 02:12:09;;;;;;;15.52;14.02;;;21.10;99.90;;;;;;5015996;28;20048;-78
2022/08/16 02:14:37;;;;;;;14.65;13.10;;;21.10;99.90;;;;;;5016963;28;20120;-78
2022/08/16 02:17:05;;;;;;;16.05;14.32;;;21.10;99.90;;;;;;5049210;28;20045;-77
2022/08/16 02:19:33;;;;;;;15.65;14.07;;;21.00;99.90;;;;;;5033601;28;20045;-79
2022/08/16 02:22:00;;;;;;;15.95;14.32;;;21.00;99.90;;;;;;5033740;28;20448;-79
2022/08/16 02:24:27;;;;;;;16.52;14.38;;;21.00;99.90;;;;;;5033164;28;20053;-79
2022/08/16 02:26:53;;;;;;;16.23;14.50;;;20.90;99.90;;;;;;5032928;28;20129;-78
2022/08/16 02:29:19;;;;;;;16.95;15.18;;;20.90;99.90;;;;;;5032784;28;20068;-79
2022/08/16 02:31:46;;;;;;;17.90;16.15;;;20.80;99.90;;;;;;5032589;28;20037;-78
2022/08/16 02:34:12;;;;;;;16.88;15.18;;;20.80;99.90;;;;;;5032601;28;20041;-79
2022/08/16 02:36:39;;;;;;;19.02;15.00;;;20.80;99.90;;;;;;5033299;28;20045;-79
2022/08/16 02:39:06;;;;;;;15.93;13.48;;;20.70;99.90;;;;;;5016504;28;20099;-79
2022/08/16 02:41:33;;;;;;;15.88;14.20;;;20.70;99.90;;;;;;5032486;28;20573;-79
2022/08/16 02:43:58;;;;;;;15.90;14.40;;;20.70;99.90;;;;;;4999549;28;20167;-78
2022/08/16 02:46:25;;;;;;;16.17;14.55;;;20.70;99.90;;;;;;5048668;28;20116;-79
2022/08/16 02:48:50;;;;;;;17.17;14.15;;;20.60;99.90;;;;;;5032466;28;20041;-79
2022/08/16 02:51:16;;;;;;;17.58;15.25;;;20.60;99.90;;;;;;5015741;28;20048;-78
2022/08/16 02:53:45;;;;;;;14.63;13.02;;;20.60;99.90;;;;;;5032189;28;20504;-79
2022/08/16 02:56:13;;;;;;;15.60;14.10;;;20.60;99.90;;;;;;5032378;28;20077;-79
2022/08/16 02:58:40;;;;;;;16.17;14.13;;;20.50;99.90;;;;;;5032912;28;20033;-79
2022/08/16 03:01:06;;;;;;;18.58;14.30;;;20.50;99.90;;;;;;5020064;28;20041;-78
2022/08/16 03:03:33;;;;;;;15.85;14.27;;;20.50;99.90;;;;;;5053394;28;20490;-79
2022/08/16 03:05:59;;;;;;;15.48;14.05;;;20.50;99.90;;;;;;5019723;28;20048;-78
2022/08/16 03:08:25;;;;;;;15.45;13.93;;;20.40;99.90;;;;;;5019775;28;20041;-78
2022/08/16 03:10:51;;;;;;;16.77;15.05;;;20.40;99.90;;;;;;5036121;28;20033;-79
2022/08/16 03:13:18;;;;;;;15.00;13.50;;;20.40;99.90;;;;;;5036300;28;20489;-79
2022/08/16 03:15:44;;;;;;;15.88;14.27;;;20.40;99.90;;;;;;5019864;28;20041;-78
2022/08/16 03:18:10;;;;;;;17.25;14.23;;;20.40;99.90;;;;;;5019738;28;20040;-79
2022/08/16 03:20:36;;;;;;;15.50;13.98;;;20.30;99.90;;;;;;5035703;28;20072;-79
2022/08/16 03:23:02;;;;;;;15.10;13.50;;;20.30;99.90;;;;;;5019481;28;20075;-78
2022/08/16 03:25:29;;;;;;;15.82;14.02;;;20.30;99.90;;;;;;5019028;28;20072;-79
2022/08/16 03:27:55;;;;;;;16.00;14.40;;;20.30;99.90;;;;;;5018967;28;20052;-78
2022/08/16 03:30:26;;;;;;;17.02;14.13;;;20.30;99.90;;;;;;5019018;28;20045;-79
2022/08/16 03:32:52;;;;;;;15.15;13.55;;;20.20;99.90;;;;;;5035945;28;20037;-78
2022/08/16 03:35:21;;;;;;;17.48;15.05;;;20.20;99.90;;;;;;5035877;28;20037;-78
2022/08/16 03:37:48;;;;;;;17.02;15.23;;;20.20;99.90;;;;;;5035704;28;20091;-78
2022/08/16 03:40:14;;;;;;;15.30;13.48;;;20.20;99.90;;;;;;5035821;28;20389;-78
2022/08/16 03:42:40;;;;;;;21.92;15.38;;;20.10;99.90;;;;;;5035518;28;20558;-78
2022/08/16 03:45:07;;;;;;;22.27;16.00;;;20.10;99.90;;;;;;5052659;28;20120;-78
2022/08/16 03:47:33;;;;;;;17.98;15.52;;;20.10;99.90;;;;;;5002666;28;20140;-78
2022/08/16 03:50:00;;;;;;;17.17;15.15;;;20.00;99.90;;;;;;5019016;28;20044;-78
2022/08/16 03:52:25;;;;;;;18.55;15.38;;;20.00;99.90;;;;;;5019388;28;20397;-79
2022/08/16 03:54:52;;;;;;;16.80;15.18;;;20.00;99.90;;;;;;5019487;28;20049;-79
2022/08/16 03:57:18;;;;;;;17.55;15.32;;;19.90;99.90;;;;;;5019122;28;20045;-79
2022/08/16 03:59:44;;;;;;;16.33;14.65;;;19.90;99.90;;;;;;5035739;28;20052;-79
2022/08/16 04:02:11;;;;;;;16.30;14.75;;;19.80;99.90;;;;;;5052280;28;20418;-79
2022/08/16 04:04:38;;;;;;;16.95;14.88;;;19.80;99.90;;;;;;5019553;28;20128;-79
2022/08/16 04:07:05;;;;;;;15.80;14.07;;;19.80;99.90;;;;;;5035754;28;20060;-79
2022/08/16 04:09:32;;;;;;;17.05;15.18;;;19.70;99.90;;;;;;5019365;28;20044;-79
2022/08/16 04:11:58;;;;;;;16.88;15.13;;;19.70;99.90;;;;;;5017690;28;20037;-79
2022/08/16 04:14:24;;;;;;;16.65;14.93;;;19.70;99.90;;;;;;5035373;28;20037;-78
2022/08/16 04:16:50;;;;;;;16.85;15.13;;;19.70;99.90;;;;;;5034174;28;20111;-78
2022/08/16 04:19:15;;;;;;;16.38;14.82;;;19.60;99.90;;;;;;5002401;28;20053;-79
2022/08/16 04:21:41;;;;;;;19.88;15.23;;;19.70;99.90;;;;;;5035483;28;20106;-79
2022/08/16 04:24:07;;;;;;;19.70;17.15;;;19.60;99.90;;;;;;5035882;28;20409;-79
2022/08/16 04:26:33;;;;;;;19.70;16.92;;;19.60;99.90;;;;;;4987217;28;20041;-78
2022/08/16 04:29:01;;;;;;;19.58;17.60;;;19.60;99.90;;;;;;5035512;28;20041;-79
2022/08/16 04:31:26;;;;;;;19.75;17.75;;;19.50;99.90;;;;;;5035034;28;20047;-79
2022/08/16 04:33:52;;;;;;;19.50;17.35;;;19.50;99.90;;;;;;5019114;28;20136;-79
2022/08/16 04:36:18;;;;;;;17.90;15.98;;;19.40;99.90;;;;;;5052327;28;20042;-79
2022/08/16 04:38:44;;;;;;;19.73;17.83;;;19.40;99.90;;;;;;5035060;28;20045;-78
2022/08/16 04:41:10;;;;;;;20.00;17.05;;;19.40;99.90;;;;;;5051917;28;20405;-78
2022/08/16 04:43:37;;;;;;;21.40;18.02;;;19.40;99.90;;;;;;5019014;28;20162;-79
2022/08/16 04:46:04;;;;;;;20.02;17.95;;;19.30;99.90;;;;;;5002691;28;20042;-79
2022/08/16 04:48:30;;;;;;;18.38;16.58;;;19.30;99.90;;;;;;5018535;28;20089;-79
2022/08/16 04:50:56;;;;;;;18.38;16.48;;;19.30;99.90;;;;;;5035159;28;20494;-79
2022/08/16 04:53:22;;;;;;;17.25;15.20;;;19.20;99.90;;;;;;5051433;28;20045;-78
2022/08/16 04:55:48;;;;;;;19.17;16.85;;;19.20;99.90;;;;;;5017932;28;20456;-79
2022/08/16 04:58:13;;;;;;;17.60;15.90;;;19.20;99.90;;;;;;5017824;28;20038;-79
2022/08/16 05:00:39;;;;;;;22.60;17.55;;;19.20;99.90;;;;;;4985181;28;20045;-78
2022/08/16 05:03:08;;;;;;;20.63;18.50;;;19.20;99.90;;;;;;5034222;28;20115;-78
2022/08/16 05:05:37;;;;;;;19.77;17.63;;;19.20;99.90;;;;;;5018085;28;20394;-79
2022/08/16 05:08:04;;;;;;;20.35;17.75;;;19.20;99.90;;;;;;5034430;28;20037;-78
2022/08/16 05:10:31;;;;;;;19.42;17.42;;;19.20;99.90;;;;;;5034451;28;20477;-78
2022/08/16 05:12:59;;;;;;;19.20;17.27;;;19.20;99.90;;;;;;5034004;28;20037;-78
2022/08/16 05:15:25;;;;;;;21.05;18.95;;;19.20;99.90;;;;;;5001694;28;20104;-78
2022/08/16 05:17:52;;;;;;;21.08;18.67;;;19.20;99.90;;;;;;5033933;28;20177;-78
2022/08/16 05:20:19;;;;;;;20.33;18.20;;;19.20;99.90;;;;;;5034205;28;20644;-79
2022/08/16 05:22:46;;;;;;;19.00;17.10;;;19.20;99.90;;;;;;5033322;28;20049;-79
2022/08/16 05:25:12;;;;;;;20.73;17.70;;;19.20;99.90;;;;;;5001643;28;20076;-79
2022/08/16 05:27:39;;;;;;;19.50;17.55;;;19.20;99.90;;;;;;5050070;28;20045;-78
2022/08/16 05:30:06;;;;;;;19.90;17.23;;;19.10;99.90;;;;;;5033556;28;20045;-78
2022/08/16 05:32:34;;;;;;;21.35;16.98;;;19.20;99.90;;;;;;4985448;28;20078;-78
2022/08/16 05:35:00;;;;;;;18.75;15.75;;;19.20;99.90;;;;;;5050799;28;20096;-78
2022/08/16 05:37:25;;;;;;;18.02;15.93;;;19.20;99.90;;;;;;5033460;28;20033;-78
2022/08/16 05:39:51;;;;;;;18.92;15.52;;;19.20;99.90;;;;;;5033986;28;20048;-78
2022/08/16 05:42:17;;;;;;;18.67;16.38;;;19.20;99.90;;;;;;5017320;28;20037;-78
2022/08/16 05:44:43;;;;;;;18.00;15.88;;;19.30;99.90;;;;;;5034355;28;20081;-79
2022/08/16 05:47:08;;;;;;;19.75;16.38;;;19.30;99.90;;;;;;5016712;28;20506;-79
2022/08/16 05:49:34;;;;;;;22.35;18.02;;;19.30;99.90;;;;;;5033554;28;20107;-78
2022/08/16 05:52:00;;;;;;;19.20;17.20;;;19.40;99.90;;;;;;5017521;28;20128;-79
2022/08/16 05:54:27;;;;;;;19.90;17.08;;;19.40;99.90;;;;;;5000826;28;20496;-79
2022/08/16 05:56:53;;;;;;;20.88;17.73;;;19.40;99.90;;;;;;5033963;28;20040;-78
2022/08/16 05:59:20;;;;;;;17.90;15.25;;;19.50;99.90;;;;;;5050273;28;20041;-79
2022/08/16 06:01:49;;;;;;;17.98;14.63;;;19.60;99.90;;;;;;5000570;28;20052;-79
2022/08/16 06:04:15;;;;;;;17.00;15.20;;;19.60;99.90;;;;;;5017276;28;20049;-78
2022/08/16 06:06:42;;;;;;;19.52;14.88;;;19.70;99.90;;;;;;5032812;28;20508;-79
2022/08/16 06:09:07;;;;;;;17.05;13.75;;;19.80;99.90;;;;;;5016346;28;20363;-79
2022/08/16 06:11:33;;;;;;;18.23;14.13;;;19.80;99.90;;;;;;5016597;28;20048;-79
2022/08/16 06:13:59;;;;;;;19.85;14.82;;;19.90;99.90;;;;;;5034029;28;20038;-79
2022/08/16 06:16:24;;;;;;;16.58;14.15;;;20.00;99.90;;;;;;4999831;28;20043;-79
2022/08/16 06:18:50;;;;;;;16.63;14.95;;;20.00;99.90;;;;;;5017731;28;20037;-79
2022/08/16 06:21:16;;;;;;;16.40;14.70;;;20.10;99.90;;;;;;5017599;28;20095;-79
2022/08/16 06:23:42;;;;;;;18.55;15.07;;;20.20;99.90;;;;;;5049288;28;20052;-79
2022/08/16 06:26:08;;;;;;;16.40;14.63;;;20.20;99.90;;;;;;5016472;28;20037;-79
2022/08/16 06:28:33;;;;;;;18.98;16.90;;;20.30;99.90;;;;;;5033064;28;20087;-79
2022/08/16 06:31:00;;;;;;;19.98;16.02;;;20.40;99.90;;;;;;5015983;28;20037;-79
2022/08/16 06:33:26;;;;;;;18.10;15.77;;;20.50;99.90;;;;;;5015726;28;20045;-79
2022/08/16 06:35:54;;;;;;;16.88;15.18;;;20.70;99.90;;;;;;5032016;28;20486;-79
2022/08/16 06:38:21;;;;;;;19.23;15.93;;;20.90;99.90;;;;;;5015792;28;20033;-79
2022/08/16 06:40:46;;;;;;;18.60;16.65;;;21.00;99.90;;;;;;5031819;28;20052;-79
2022/08/16 06:43:12;;;;;;;20.77;17.17;;;21.20;99.90;;;;;;5049542;28;20045;-79
2022/08/16 06:45:39;;;;;;;19.55;16.88;;;21.40;99.90;;;;;;5016697;28;20140;-79
2022/08/16 06:48:05;;;;;;;18.90;16.42;;;21.60;99.90;;;;;;5032516;28;20123;-79
2022/08/16 06:50:31;;;;;;;19.75;17.67;;;21.90;99.90;;;;;;5032244;28;20080;-79
2022/08/16 06:52:58;;;;;;;23.73;18.40;;;22.00;99.90;;;;;;5015544;28;20041;-79
2022/08/16 06:55:23;;;;;;;22.85;17.63;;;22.10;99.90;;;;;;5016083;28;20037;-79
2022/08/16 06:57:51;;;;;;;18.55;16.17;;;22.40;99.90;;;;;;5032711;28;20116;-79
2022/08/16 07:00:17;;;;;;;19.77;17.63;;;22.60;99.90;;;;;;5016711;28;20359;-79
2022/08/16 07:02:43;;;;;;;19.23;17.33;;;22.60;99.90;;;;;;5000300;28;20051;-79
2022/08/16 07:05:14;;;;;;;22.38;19.10;;;22.60;99.90;;;;;;5016276;28;20045;-79
2022/08/16 07:07:41;;;;;;;24.27;21.77;;;22.70;99.90;;;;;;5032351;28;20041;-79
2022/08/16 07:10:08;;;;;;;28.75;23.13;;;22.90;99.90;;;;;;5032905;28;20052;-79
2022/08/16 07:12:35;;;;;;;23.15;20.63;;;23.20;99.90;;;;;;5032629;28;20033;-79
2022/08/16 07:15:02;;;;;;;23.08;20.67;;;23.50;99.90;;;;;;5016421;28;20041;-79
2022/08/16 07:17:28;;;;;;;31.90;23.08;;;23.80;99.90;;;;;;5016632;28;20473;-79
2022/08/16 07:19:55;;;;;;;34.40;22.73;;;24.10;99.90;;;;;;5016696;28;20037;-79
2022/08/16 07:22:21;;;;;;;24.33;21.92;;;24.20;99.90;;;;;;5032107;28;20029;-79
2022/08/16 07:24:47;;;;;;;24.90;21.55;;;24.30;99.90;;;;;;5016586;28;20076;-79
2022/08/16 07:27:13;;;;;;;22.80;19.27;;;24.30;99.90;;;;;;5016016;28;20069;-79
2022/08/16 07:29:39;;;;;;;22.55;20.17;;;24.40;99.90;;;;;;5032936;28;20464;-79
2022/08/16 07:32:05;;;;;;;23.73;19.23;;;24.40;99.90;;;;;;5032591;28;20125;-79
2022/08/16 07:34:32;;;;;;;21.33;18.83;;;24.40;99.90;;;;;;5032177;28;20124;-79
2022/08/16 07:36:59;;;;;;;22.70;20.35;;;24.60;99.90;;;;;;5032424;28;20124;-79
2022/08/16 07:39:25;;;;;;;23.08;20.60;;;24.60;99.90;;;;;;5032275;28;20045;-79
2022/08/16 07:41:51;;;;;;;19.80;17.80;;;24.70;99.90;;;;;;5033093;28;20048;-79
2022/08/16 07:44:17;;;;;;;21.42;18.02;;;24.80;99.90;;;;;;5017180;28;20052;-79
2022/08/16 07:46:43;;;;;;;25.00;19.52;;;24.90;99.90;;;;;;5034461;28;20053;-79
2022/08/16 07:49:08;;;;;;;22.42;19.55;;;25.00;99.90;;;;;;5037326;28;20111;-79
2022/08/16 07:51:35;;;;;;;20.08;17.73;;;25.10;99.90;;;;;;5019586;28;20478;-79
2022/08/16 07:54:04;;;;;;;22.00;19.42;;;25.20;99.90;;;;;;5036486;28;20139;-79
2022/08/16 07:56:29;;;;;;;23.15;20.65;;;25.20;99.90;;;;;;5052708;28;20503;-79
2022/08/16 07:58:56;;;;;;;24.85;22.27;;;25.10;99.90;;;;;;5036171;28;20087;-79
2022/08/16 08:01:22;;;;;;;24.17;21.58;;;25.00;99.90;;;;;;5035588;28;20045;-79
2022/08/16 08:03:48;;;;;;;22.65;18.98;;;25.00;99.90;;;;;;5019534;28;20045;-79
2022/08/16 08:06:18;;;;;;;22.33;19.17;;;24.90;99.90;;;;;;5036181;28;20129;-79
2022/08/16 08:08:44;;;;;;;22.25;19.95;;;24.90;99.90;;;;;;5036125;28;20072;-79
2022/08/16 08:11:10;;;;;;;21.20;17.15;;;24.90;99.90;;;;;;5002514;28;20099;-79
2022/08/16 08:13:35;;;;;;;19.92;17.40;;;24.90;99.90;;;;;;5035176;28;20490;-79
2022/08/16 08:16:01;;;;;;;25.45;21.27;;;24.90;99.90;;;;;;5018574;28;20039;-79
2022/08/16 08:18:28;;;;;;;17.20;15.43;;;24.90;99.90;;;;;;5036082;28;20042;-80
2022/08/16 08:20:53;;;;;;;16.58;14.82;;;24.90;99.90;;;;;;5035922;28;20104;-79
2022/08/16 08:23:20;;;;;;;18.80;15.27;;;24.80;99.90;;;;;;5020605;28;20037;-79
2022/08/16 08:25:45;;;;;;;23.13;17.05;;;24.80;99.90;;;;;;5037134;28;20091;-79
2022/08/16 08:28:12;;;;;;;16.48;14.82;;;24.60;99.90;;;;;;5038690;28;20507;-79
2022/08/16 08:30:38;;;;;;;17.80;15.90;;;24.60;99.90;;;;;;5005477;28;20037;-79
2022/08/16 08:33:04;;;;;;;18.35;16.30;;;24.50;99.90;;;;;;5051394;28;20540;-79
2022/08/16 08:35:31;;;;;;;18.55;15.90;;;24.40;99.90;;;;;;5034774;28;20042;-79
2022/08/16 08:37:57;;;;;;;18.17;16.38;;;24.40;99.90;;;;;;5035711;28;20045;-79
2022/08/16 08:40:25;;;;;;;18.80;16.58;;;24.40;99.90;;;;;;5035714;28;20081;-79
2022/08/16 08:42:51;;;;;;;20.65;16.15;;;24.30;99.90;;;;;;5019363;28;20045;-79
2022/08/16 08:45:17;;;;;;;19.42;16.75;;;24.30;99.90;;;;;;5034612;28;20556;-79
2022/08/16 08:47:46;;;;;;;18.38;16.33;;;24.30;99.90;;;;;;5050795;28;20057;-79
2022/08/16 08:50:16;;;;;;;20.48;16.85;;;24.40;99.90;;;;;;5034486;28;20051;-79
2022/08/16 08:52:43;;;;;;;17.60;15.77;;;24.40;99.90;;;;;;5018084;28;20049;-79
2022/08/16 08:55:12;;;;;;;17.77;15.93;;;24.40;99.90;;;;;;5034117;28;20075;-79
2022/08/16 08:57:46;;;;;;;20.08;15.90;;;24.30;99.90;;;;;;5033946;28;20124;-79
2022/08/16 09:00:16;;;;;;;18.13;15.30;;;24.30;99.90;;;;;;5034328;28;20034;-79
2022/08/16 09:02:42;;;;;;;17.17;15.40;;;24.30;99.90;;;;;;5035181;28;20037;-79
2022/08/16 09:05:09;;;;;;;17.42;15.55;;;24.20;99.90;;;;;;5034654;28;20042;-79
2022/08/16 09:07:37;;;;;;;16.73;14.93;;;24.30;99.70;;;;;;5034238;28;20049;-79
2022/08/16 09:10:05;;;;;;;16.38;14.68;;;24.30;99.30;;;;;;5018028;28;20167;-79
2022/08/16 09:12:31;;;;;;;16.05;14.45;;;24.30;99.20;;;;;;5034158;28;20590;-79
2022/08/16 09:14:57;;;;;;;16.80;14.13;;;24.30;99.10;;;;;;5034137;28;20037;-79
2022/08/16 09:17:23;;;;;;;17.45;14.68;;;24.30;99.40;;;;;;5001749;28;20042;-80
2022/08/16 09:19:50;;;;;;;17.35;15.50;;;24.40;99.60;;;;;;5017898;28;20125;-79
2022/08/16 09:22:17;;;;;;;17.92;15.18;;;24.40;99.60;;;;;;5034021;28;20045;-79
2022/08/16 09:24:43;;;;;;;16.05;13.95;;;24.40;99.60;;;;;;5034062;28;20559;-79
2022/08/16 09:27:09;;;;;;;14.90;13.25;;;24.50;99.80;;;;;;5018189;28;20045;-79
2022/08/16 09:29:35;;;;;;;13.45;11.98;;;24.50;99.70;;;;;;5033893;28;20047;-79
2022/08/16 09:32:00;;;;;;;13.68;12.27;;;24.60;99.30;;;;;;5033967;28;20042;-79
2022/08/16 09:34:26;;;;;;;14.35;12.88;;;24.70;98.90;;;;;;5018562;28;20038;-79
2022/08/16 09:36:54;;;;;;;13.60;11.20;;;24.70;98.70;;;;;;5033594;28;20069;-79
2022/08/16 09:39:20;;;;;;;12.95;10.13;;;24.80;98.30;;;;;;5017425;28;20417;-79
2022/08/16 09:41:50;;;;;;;12.73;9.88;;;24.80;97.70;;;;;;5033827;28;20398;-79
2022/08/16 09:44:19;;;;;;;17.33;9.57;;;24.90;97.30;;;;;;5033411;28;20049;-79
2022/08/16 09:46:45;;;;;;;9.23;7.72;;;25.00;96.00;;;;;;5049932;28;20537;-79
2022/08/16 09:49:12;;;;;;;8.50;6.47;;;25.00;95.70;;;;;;5017335;28;20080;-79
2022/08/16 09:51:39;;;;;;;6.93;5.90;;;25.00;94.40;;;;;;5033718;28;20037;-79
2022/08/16 09:54:05;;;;;;;6.72;5.78;;;25.00;94.00;;;;;;5018208;28;20048;-79
2022/08/16 09:56:33;;;;;;;5.90;5.22;;;25.00;93.70;;;;;;5051123;28;20035;-79
2022/08/16 09:59:01;;;;;;;6.07;5.47;;;25.00;93.50;;;;;;5051246;28;20426;-79
2022/08/16 10:01:27;;;;;;;11.50;6.93;;;25.00;93.20;;;;;;5050811;28;20047;-79
2022/08/16 10:03:56;;;;;;;7.57;5.50;;;25.10;93.30;;;;;;5049902;28;20041;-79
2022/08/16 10:06:23;;;;;;;8.55;6.25;;;25.10;93.10;;;;;;5000029;28;20056;-79
2022/08/16 10:08:50;;;;;;;7.18;5.85;;;25.20;93.20;;;;;;5000012;28;20046;-79
2022/08/16 10:14:02;;;;;;;7.80;6.40;;;25.20;92.60;;;;;;5033024;28;20462;-79
2022/08/16 10:16:28;;;;;;;8.07;6.53;;;25.20;92.80;;;;;;5035380;28;20437;-79
2022/08/16 10:18:54;;;;;;;6.50;5.70;;;25.30;92.50;;;;;;5018629;28;20033;-78
2022/08/16 10:21:21;;;;;;;7.70;6.32;;;25.30;92.70;;;;;;5034728;28;20569;-79
2022/08/16 10:23:48;;;;;;;8.68;6.13;;;25.40;92.40;;;;;;5033115;28;20056;-79
2022/08/16 10:26:14;;;;;;;7.43;6.28;;;25.40;92.40;;;;;;5014674;28;20045;-78
2022/08/16 10:28:40;;;;;;;7.90;6.35;;;25.50;92.20;;;;;;5016338;28;20073;-79
2022/08/16 10:31:07;;;;;;;6.65;5.70;;;25.50;92.40;;;;;;5017265;28;20076;-78
2022/08/16 10:33:36;;;;;;;7.15;6.43;;;25.50;92.20;;;;;;5028139;28;20033;-77
2022/08/16 10:36:06;;;;;;;7.82;5.88;;;25.50;91.60;;;;;;5052513;28;20075;-77
2022/08/16 10:38:34;;;;;;;6.40;5.40;;;25.50;91.40;;;;;;5035648;28;20033;-77
2022/08/16 10:41:00;;;;;;;7.07;5.10;;;25.60;91.30;;;;;;5024573;28;20048;-77
2022/08/16 10:43:27;;;;;;;5.03;4.53;;;25.70;90.50;;;;;;5013714;28;20045;-77
2022/08/16 10:45:52;;;;;;;7.93;4.38;;;25.70;90.60;;;;;;5015520;28;20049;-77
2022/08/16 10:48:18;;;;;;;4.63;3.90;;;25.70;90.10;;;;;;5032156;28;20061;-77
2022/08/16 10:50:44;;;;;;;5.47;3.90;;;25.80;90.00;;;;;;5007765;28;20494;-77
2022/08/16 10:53:10;;;;;;;5.63;3.53;;;25.80;89.20;;;;;;5015670;28;20034;-77
2022/08/16 10:55:38;;;;;;;3.70;2.75;;;25.90;88.40;;;;;;5032341;28;20041;-77
2022/08/16 10:58:06;;;;;;;5.55;3.30;;;25.90;87.70;;;;;;5015697;28;20052;-76
2022/08/16 11:00:33;;;;;;;10.75;3.67;;;25.90;87.20;;;;;;5026401;28;20124;-76
2022/08/16 11:03:02;;;;;;;4.63;3.20;;;26.00;85.40;;;;;;5028686;28;20080;-76
2022/08/16 11:05:30;;;;;;;7.10;2.92;;;26.00;85.20;;;;;;5030751;28;20099;-76
2022/08/16 11:07:56;;;;;;;4.22;3.05;;;26.10;84.40;;;;;;5015268;28;20059;-75
2022/08/16 11:10:34;;;;;;;4.05;3.20;;;26.20;84.80;;;;;;5031357;28;20060;-76
2022/08/16 11:13:00;;;;;;;5.25;3.50;;;26.30;83.80;;;;;;5013873;28;20033;-76
2022/08/16 11:15:28;;;;;;;4.05;3.15;;;26.30;84.40;;;;;;5029639;28;20065;-76
2022/08/16 11:17:54;;;;;;;4.90;3.67;;;26.30;84.50;;;;;;5031479;28;20041;-76
2022/08/16 11:20:21;;;;;;;9.38;5.50;;;26.40;85.30;;;;;;5049322;28;20045;-76
2022/08/16 11:22:48;;;;;;;6.30;4.97;;;26.50;86.00;;;;;;5035386;28;20049;-76
2022/08/16 11:25:17;;;;;;;28.00;5.38;;;26.50;85.40;;;;;;5033369;28;20045;-76
2022/08/16 11:27:42;;;;;;;8.35;5.47;;;26.50;86.50;;;;;;5023814;28;20076;-77
2022/08/16 11:30:11;;;;;;;7.65;5.15;;;26.50;85.90;;;;;;5034674;28;20079;-77
2022/08/16 11:32:38;;;;;;;6.78;4.57;;;26.50;86.10;;;;;;5018132;28;20037;-77
2022/08/16 11:35:08;;;;;;;6.80;5.40;;;26.60;86.70;;;;;;5016669;28;20044;-76
2022/08/16 11:37:35;;;;;;;6.97;5.68;;;26.60;87.00;;;;;;5034291;28;20034;-76
2022/08/16 11:40:03;;;;;;;6.82;5.88;;;26.70;87.70;;;;;;5018817;28;20098;-76
2022/08/16 11:42:29;;;;;;;7.70;5.63;;;26.70;87.70;;;;;;5028890;28;20045;-76
2022/08/16 11:44:54;;;;;;;9.52;6.43;;;26.70;88.10;;;;;;4999837;28;20037;-76
2022/08/16 11:47:20;;;;;;;10.60;7.05;;;26.80;87.70;;;;;;5016306;28;20061;-76
2022/08/16 11:49:46;;;;;;;11.90;5.68;;;26.80;87.30;;;;;;5034467;28;20051;-76
2022/08/16 11:52:12;;;;;;;7.90;6.35;;;26.90;87.40;;;;;;5034392;28;20041;-75
2022/08/16 11:54:39;;;;;;;6.72;6.03;;;26.90;87.10;;;;;;5034326;28;20056;-76
2022/08/16 11:57:04;;;;;;;6.82;6.13;;;27.00;87.00;;;;;;5050795;28;20046;-76
2022/08/16 11:59:31;;;;;;;9.95;6.35;;;27.00;87.20;;;;;;5002080;28;20037;-76
2022/08/16 12:01:57;;;;;;;9.45;5.80;;;27.00;87.40;;;;;;5017311;28;20052;-76
2022/08/16 12:04:24;;;;;;;5.88;5.30;;;27.10;87.20;;;;;;5033684;28;20442;-77
2022/08/16 12:06:51;;;;;;;6.70;6.00;;;27.20;86.80;;;;;;5017296;28;20037;-76
2022/08/16 12:09:16;;;;;;;7.95;5.82;;;27.30;87.00;;;;;;5018734;28;20507;-77
2022/08/16 12:11:43;;;;;;;6.47;5.00;;;27.30;86.30;;;;;;5018032;28;20129;-77
2022/08/16 12:14:09;;;;;;;6.50;5.03;;;27.30;85.60;;;;;;5034086;28;20046;-77
2022/08/16 12:16:35;;;;;;;7.75;5.15;;;27.40;85.60;;;;;;5017393;28;20049;-77
2022/08/16 12:19:06;;;;;;;6.35;5.28;;;27.30;85.40;;;;;;5032536;28;20048;-77
2022/08/16 12:21:33;;;;;;;7.60;5.07;;;27.40;84.30;;;;;;5035346;28;20517;-77
2022/08/16 12:23:59;;;;;;;7.38;5.10;;;27.50;84.20;;;;;;5035173;28;20037;-77
2022/08/16 12:26:24;;;;;;;6.10;5.40;;;27.60;83.80;;;;;;5018390;28;20064;-77
2022/08/16 12:28:52;;;;;;;5.47;4.88;;;27.70;83.40;;;;;;5035408;28;20497;-77
2022/08/16 12:31:19;;;;;;;6.78;5.93;;;27.70;83.20;;;;;;5000675;28;20041;-77